createdAt,value
2018-06-03T00:00:52.936Z,7.86
2018-06-03T00:06:53.439Z,8.72
2018-06-03T00:12:53.986Z,8.58
2018-06-03T00:16:54.554Z,8.48
2018-06-03T00:22:55.100Z,8.63
2018-06-03T00:26:55.742Z,8.27
2018-06-03T00:28:56.180Z,7.19
2018-06-03T00:32:56.683Z,7.59
2018-06-03T00:38:57.195Z,8.21
2018-06-03T00:42:57.882Z,8.3
2018-06-03T00:48:58.378Z,7.26
2018-06-03T00:52:58.868Z,8.11
2018-06-03T00:54:59.322Z,8.32
2018-06-03T00:58:59.962Z,10.04
2018-06-03T01:05:00.424Z,8.47
2018-06-03T01:09:00.932Z,7
2018-06-03T01:15:01.517Z,7.28
2018-06-03T01:21:02.145Z,7.72
2018-06-03T01:25:03.479Z,8.12
2018-06-03T01:31:04.212Z,7.27
2018-06-03T01:35:04.624Z,8.07
2018-06-03T01:41:05.192Z,6.6
2018-06-03T01:47:05.725Z,7.62
2018-06-03T01:51:06.186Z,9.2
2018-06-03T01:57:06.771Z,7.29
2018-06-03T02:01:07.348Z,9.42
2018-06-03T02:07:07.888Z,7.2
2018-06-03T02:13:08.404Z,9.02
2018-06-03T02:17:08.846Z,9.26
2018-06-03T02:23:09.556Z,7.76
2018-06-03T02:27:10.082Z,7.2
2018-06-03T02:29:10.607Z,7.35
2018-06-03T02:33:11.056Z,8.31
2018-06-03T02:39:11.579Z,8.09
2018-06-03T02:43:12.024Z,8.11
2018-06-03T02:49:12.631Z,6.82
2018-06-03T02:53:13.183Z,6.95
2018-06-03T02:55:13.640Z,8.37
2018-06-03T02:59:14.162Z,8.14
2018-06-03T03:05:14.648Z,7.15
2018-06-03T03:09:15.188Z,8.99
2018-06-03T03:15:16.085Z,9.48
2018-06-03T03:21:16.566Z,8.73
2018-06-03T03:25:17.202Z,8.35
2018-06-03T03:31:17.692Z,7.47
2018-06-03T03:35:18.285Z,6.8
2018-06-03T03:41:18.849Z,9.41
2018-06-03T03:47:19.398Z,7.63
2018-06-03T03:51:19.939Z,8.54
2018-06-03T03:57:20.495Z,8.09
2018-06-03T04:01:21.101Z,8.21
2018-06-03T04:07:21.690Z,8.02
2018-06-03T04:13:22.165Z,8.78
2018-06-03T04:17:22.705Z,8.47
2018-06-03T04:23:23.307Z,6.57
2018-06-03T04:27:23.831Z,6.14
2018-06-03T04:29:24.266Z,7.25
2018-06-03T04:33:24.792Z,7.54
2018-06-03T04:39:25.261Z,8.46
2018-06-03T04:43:25.738Z,7.8
2018-06-03T04:49:26.308Z,8.26
2018-06-03T04:53:26.814Z,8.44
2018-06-03T04:55:27.234Z,8.88
2018-06-03T04:59:27.764Z,8.36
2018-06-03T05:05:28.199Z,7.24
2018-06-03T05:09:28.715Z,6.75
2018-06-03T05:15:29.720Z,11.94
2018-06-03T05:21:30.396Z,11.49
2018-06-03T05:25:30.866Z,12.14
2018-06-03T05:31:31.352Z,9.3
2018-06-03T05:35:31.873Z,8.2
2018-06-03T05:41:32.474Z,7.89
2018-06-03T05:47:32.940Z,7.88
2018-06-03T05:51:33.453Z,8.09
2018-06-03T05:57:34.070Z,8.16
2018-06-03T06:01:34.604Z,7.46
2018-06-03T06:03:35.067Z,7.68
2018-06-03T06:07:35.581Z,6.87
2018-06-03T06:13:36.065Z,7.31
2018-06-03T06:17:36.630Z,7.61
2018-06-03T06:23:37.119Z,9.23
2018-06-03T06:27:37.585Z,8.02
2018-06-03T06:29:38.080Z,6.01
2018-06-03T06:33:38.617Z,8.21
2018-06-03T06:39:39.117Z,8.09
2018-06-03T06:43:39.802Z,9.05
2018-06-03T06:49:40.351Z,7.93
2018-06-03T06:53:40.847Z,8.89
2018-06-03T06:55:41.399Z,8.26
2018-06-03T06:59:41.920Z,10.8
2018-06-03T07:05:42.416Z,16
2018-06-03T07:09:42.922Z,17.47
2018-06-03T07:15:43.410Z,8.97
2018-06-03T07:21:44.005Z,5.94
2018-06-03T07:25:44.582Z,6.67
2018-06-03T07:31:45.125Z,6.83
2018-06-03T07:35:45.692Z,8.67
2018-06-03T07:41:46.189Z,7.25
2018-06-03T07:47:46.633Z,7.23
2018-06-03T07:51:47.151Z,6.83
2018-06-03T07:57:47.785Z,7.88
2018-06-03T08:01:48.298Z,7.52
2018-06-03T08:03:48.728Z,5.96
2018-06-03T08:07:49.265Z,5.65
2018-06-03T08:13:49.959Z,7.03
2018-06-03T08:17:50.529Z,5.37
2018-06-03T08:23:51.104Z,7.34
2018-06-03T08:27:51.676Z,6.57
2018-06-03T08:29:52.232Z,6.51
2018-06-03T08:33:52.666Z,5.73
2018-06-03T08:39:53.277Z,5.07
2018-06-03T08:43:53.754Z,4.85
2018-06-03T08:49:54.869Z,4.76
2018-06-03T08:55:55.491Z,5.1
2018-06-03T08:59:55.992Z,4.55
2018-06-03T09:05:56.519Z,4.06
2018-06-03T09:09:57.122Z,4.99
2018-06-03T09:15:57.619Z,4.61
2018-06-03T09:21:58.137Z,5.22
2018-06-03T09:25:58.665Z,4.76
2018-06-03T09:31:59.239Z,3.91
2018-06-03T09:35:59.851Z,4.76
2018-06-03T09:38:00.344Z,4.84
2018-06-03T09:42:00.914Z,4.34
2018-06-03T09:48:01.554Z,3.61
2018-06-03T09:52:02.032Z,3.5
2018-06-03T09:58:02.532Z,3.35
2018-06-03T10:02:03.205Z,3.57
2018-06-03T10:04:03.697Z,4.01
2018-06-03T10:08:04.201Z,4.34
2018-06-03T10:14:04.769Z,4.15
2018-06-03T10:18:05.334Z,4.34
2018-06-03T10:24:05.974Z,4.04
2018-06-03T10:28:06.485Z,4.88
2018-06-03T10:30:07.288Z,3.54
2018-06-03T10:34:07.809Z,3.23
2018-06-03T10:40:08.345Z,3.67
2018-06-03T10:44:08.886Z,3.88
2018-06-03T10:50:09.607Z,2.57
2018-06-03T10:56:10.119Z,4.61
2018-06-03T11:00:11.010Z,3.18
2018-06-03T11:06:11.525Z,4.43
2018-06-03T11:22:24.146Z,3.89
2018-06-03T11:26:24.727Z,3.37
2018-06-03T11:28:25.183Z,3.26
2018-06-03T11:32:25.703Z,3.45
2018-06-03T11:38:26.223Z,4.74
2018-06-03T11:42:26.725Z,4.41
2018-06-03T11:48:27.308Z,3.56
2018-06-03T11:54:27.824Z,4.65
2018-06-03T11:58:28.406Z,4.86
2018-06-03T12:04:28.981Z,4.66
2018-06-03T12:08:29.484Z,4.4
2018-06-03T12:14:29.977Z,4.67
2018-06-03T12:20:30.624Z,3.34
2018-06-03T12:24:31.192Z,3.36
2018-06-03T12:30:31.721Z,4.58
2018-06-03T12:34:32.209Z,3.98
2018-06-03T12:36:32.763Z,4.23
2018-06-03T12:40:33.269Z,4.11
2018-06-03T12:46:33.865Z,3.65
2018-06-03T12:50:34.520Z,4.37
2018-06-03T12:56:34.970Z,4.22
2018-06-03T13:00:35.567Z,4.2
2018-06-03T13:02:36.043Z,2.86
2018-06-03T13:06:36.584Z,4
2018-06-03T13:12:37.265Z,4.03
2018-06-03T13:16:37.831Z,4.03
2018-06-03T13:22:38.352Z,3.85
2018-06-03T13:28:38.850Z,4.2
2018-06-03T13:32:39.458Z,5.22
2018-06-03T13:38:39.994Z,4.65
2018-06-03T13:42:40.528Z,5.28
2018-06-03T13:48:41.104Z,6.27
2018-06-03T13:54:41.662Z,4.86
2018-06-03T13:58:42.140Z,5.36
2018-06-03T14:04:42.910Z,5.87
2018-06-03T14:08:43.652Z,5
2018-06-03T14:10:44.178Z,3.88
2018-06-03T14:14:44.637Z,3.91
2018-06-03T14:20:45.172Z,5.86
2018-06-03T14:24:45.679Z,4.75
2018-06-03T14:30:46.170Z,5.32
2018-06-03T14:34:46.742Z,4.11
2018-06-03T14:36:47.258Z,5.97
2018-06-03T14:40:47.788Z,5.63
2018-06-03T14:46:48.458Z,3.88
2018-06-03T14:50:49.093Z,6.97
2018-06-03T14:56:49.545Z,4.37
2018-06-03T15:02:50.012Z,4.33
2018-06-03T15:06:50.520Z,6.1
2018-06-03T15:12:51.012Z,7.63
2018-06-03T15:16:51.674Z,5.95
2018-06-03T15:22:52.198Z,5.25
2018-06-03T15:28:52.790Z,7.22
2018-06-03T15:32:53.368Z,6.13
2018-06-03T15:38:53.796Z,5.12
2018-06-03T15:42:54.308Z,5.41
2018-06-03T15:44:54.825Z,4.97
2018-06-03T15:48:55.431Z,5.42
2018-06-03T15:54:55.860Z,6.61
2018-06-03T15:58:56.617Z,5.47
2018-06-03T16:04:57.212Z,7.44
2018-06-03T16:08:57.758Z,7.08
2018-06-03T16:10:58.233Z,5.03
2018-06-03T16:14:58.820Z,5.63
2018-06-03T16:20:59.389Z,5.27
2018-06-03T16:25:00.185Z,5.91
2018-06-03T16:31:00.724Z,4.47
2018-06-03T16:37:01.344Z,5.13
2018-06-03T16:41:01.816Z,6.08
2018-06-03T16:47:02.302Z,5.45
2018-06-03T16:51:02.824Z,4.76
2018-06-03T16:57:03.313Z,5.9
2018-06-03T17:03:03.901Z,5.88
2018-06-03T17:07:04.330Z,5.43
2018-06-03T17:13:04.824Z,5.64
2018-06-03T17:17:05.401Z,5.43
2018-06-03T17:19:05.924Z,5.76
2018-06-03T17:23:06.461Z,5.43
2018-06-03T17:29:07.023Z,4.03
2018-06-03T17:33:07.591Z,6.14
2018-06-03T17:39:08.134Z,5.05
2018-06-03T17:43:08.636Z,5.88
2018-06-03T17:45:09.502Z,6.03
2018-06-03T17:49:10.074Z,6.39
2018-06-03T17:55:10.635Z,5.89
2018-06-03T17:59:11.107Z,6.33
2018-06-03T18:05:11.573Z,5.79
2018-06-03T18:11:12.218Z,5.17
2018-06-03T18:15:13.152Z,6.23
2018-06-03T18:21:13.776Z,6.6
2018-06-03T18:25:14.454Z,7.08
2018-06-03T18:31:15.141Z,6.1
2018-06-03T18:37:15.786Z,5.08
2018-06-03T18:41:16.442Z,5.67
2018-06-03T18:47:16.981Z,7.81
2018-06-03T18:51:17.491Z,5.87
2018-06-03T18:53:17.935Z,6.01
2018-06-03T18:57:18.537Z,5.63
2018-06-03T19:03:19.076Z,6.86
2018-06-03T19:07:19.682Z,5.43
2018-06-03T19:13:20.187Z,5.89
2018-06-03T19:17:20.749Z,6.8
2018-06-03T19:19:21.253Z,6.21
2018-06-03T19:23:21.793Z,6.1
2018-06-03T19:29:22.315Z,4.95
2018-06-03T19:33:22.725Z,6.12
2018-06-03T19:39:23.359Z,6.4
2018-06-03T19:45:24.319Z,11.28
2018-06-03T19:49:25.018Z,9.16
2018-06-03T19:55:25.463Z,7.96
2018-06-03T19:59:25.912Z,7.34
2018-06-03T20:05:26.563Z,7.06
2018-06-03T20:11:27.104Z,6.67
2018-06-03T20:15:28.447Z,7.36
2018-06-03T20:21:29.050Z,7.24
2018-06-03T20:25:29.595Z,6.96
2018-06-03T20:31:30.107Z,8.54
2018-06-03T20:37:30.683Z,7.62
2018-06-03T20:41:31.171Z,7.58
2018-06-03T20:47:31.812Z,6.9
2018-06-03T20:51:32.264Z,7.51
2018-06-03T20:53:32.712Z,8.09
2018-06-03T20:57:33.291Z,6.8
2018-06-03T21:03:33.772Z,7.03
2018-06-03T21:07:34.276Z,6.19
2018-06-03T21:13:34.775Z,7.72
2018-06-03T21:17:35.331Z,7.02
2018-06-03T21:19:35.718Z,6.59
2018-06-03T21:23:36.297Z,7.44
2018-06-03T21:29:36.758Z,8.59
2018-06-03T21:33:37.306Z,7.44
2018-06-03T21:39:37.813Z,5.82
2018-06-03T21:45:38.432Z,5.63
2018-06-03T21:49:38.985Z,7.27
2018-06-03T21:55:39.519Z,7.32
2018-06-03T21:59:40.035Z,9.49
2018-06-03T22:05:40.591Z,8.55
2018-06-03T22:11:41.294Z,6.08
2018-06-03T22:15:41.771Z,7.17
2018-06-03T22:21:42.537Z,7.95
2018-06-03T22:25:42.980Z,6.81
2018-06-03T22:27:43.485Z,8.23
2018-06-03T22:31:43.986Z,7.41
2018-06-03T22:37:44.608Z,7.13
2018-06-03T22:41:45.306Z,8.43
2018-06-03T22:47:45.989Z,6.87
2018-06-03T22:51:46.453Z,7.31
2018-06-03T22:53:46.937Z,9.14
2018-06-03T22:57:47.511Z,8.16
2018-06-03T23:03:47.994Z,7.98
2018-06-03T23:07:48.468Z,8.33
2018-06-03T23:13:49.069Z,7.48
2018-06-03T23:19:49.653Z,7.8
2018-06-03T23:23:50.187Z,6.46
2018-06-03T23:29:50.698Z,8.41
2018-06-03T23:33:51.173Z,8.26
2018-06-03T23:39:51.707Z,9.1
2018-06-03T23:45:52.349Z,15.34
2018-06-03T23:49:52.793Z,13.02
2018-06-03T23:55:53.265Z,13.75
2018-06-03T23:59:53.801Z,14.72
